Terminal Aerodrome Forecast
Issued by NWS

Home | Current Version | Previous Version | Text Only | Print | Product List | Glossary On
Versions: 1 2 3 4 5 6 7 8 9 10 11 12 13 14 15 16
000
FTUS43 KDVN 290540
TAFCID
TAF
KCID 290540Z 2906/3006 14003KT P6SM -RA BKN050 OVC100
      TEMPO 2906/2909 4SM -RA BKN030 OVC050
     FM290900 32006KT P6SM SCT035 OVC050
     FM291700 31012G18KT P6SM FEW050
     FM292300 28006KT P6SM SKC=

USA.gov is the U.S. government's official web portal to all federal, state and local government web resources and services.